Time,TemperatureF,DewpointF,PressureIn,WindDirection,WindDirectionDegrees,WindSpeedMPH,WindSpeedGustMPH,Humidity,HourlyPrecipIn,Conditions,Clouds,dailyrainin,SolarRadiationWatts/m^2,SoftwareType,DateUTC
2013-09-30 00:04:00,64.0,32.0,-100.00,SSW,202,5.0,7.0,30,0.00,,,0.00,0.000000,,2013-09-30 04:04:00,
2013-09-30 00:44:00,62.0,33.0,-100.00,SW,232,5.0,9.0,33,0.00,,,0.00,0.000000,,2013-09-30 04:44:00,
2013-09-30 00:53:00,62.0,33.0,-100.00,SW,232,5.0,9.0,33,0.00,,,0.00,0.000000,,2013-09-30 04:53:00,
2013-09-30 01:02:00,62.0,33.0,-100.00,SW,232,5.0,9.0,33,0.00,,,0.00,0.000000,,2013-09-30 05:02:00,
2013-09-30 01:12:00,62.0,33.0,-100.00,SW,232,5.0,9.0,33,0.00,,,0.00,0.000000,,2013-09-30 05:12:00,
2013-09-30 01:43:00,62.0,33.0,-100.00,WSW,242,3.0,8.0,33,0.00,,,0.00,0.000000,,2013-09-30 05:43:00,
2013-09-30 01:52:00,62.0,33.0,-100.00,WSW,242,3.0,8.0,33,0.00,,,0.00,0.000000,,2013-09-30 05:52:00,
2013-09-30 02:03:00,62.0,33.0,-100.00,WSW,242,3.0,8.0,33,0.00,,,0.00,0.000000,,2013-09-30 06:03:00,
2013-09-30 02:12:00,62.0,33.0,-100.00,WSW,242,3.0,8.0,33,0.00,,,0.00,0.000000,,2013-09-30 06:12:00,
2013-09-30 02:42:00,59.0,32.0,-100.00,South,181,4.0,8.0,36,0.00,,,0.00,0.000000,,2013-09-30 06:42:00,
2013-09-30 02:52:00,59.0,32.0,-100.00,South,181,4.0,8.0,36,0.00,,,0.00,0.000000,,2013-09-30 06:52:00,
2013-09-30 03:01:00,59.0,32.0,-100.00,South,181,4.0,8.0,36,0.00,,,0.00,0.000000,,2013-09-30 07:01:00,
2013-09-30 03:12:00,59.0,32.0,-100.00,South,181,4.0,8.0,36,0.00,,,0.00,0.000000,,2013-09-30 07:12:00,
2013-09-30 03:42:00,58.0,33.0,-100.00,West,271,3.0,8.0,39,0.00,,,0.00,0.000000,,2013-09-30 07:42:00,
2013-09-30 03:53:00,58.0,33.0,-100.00,West,271,3.0,8.0,39,0.00,,,0.00,0.000000,,2013-09-30 07:53:00,
2013-09-30 04:02:00,58.0,33.0,-100.00,West,271,3.0,8.0,39,0.00,,,0.00,0.000000,,2013-09-30 08:02:00,
2013-09-30 04:12:00,58.0,33.0,-100.00,West,271,3.0,8.0,39,0.00,,,0.00,0.000000,,2013-09-30 08:12:00,
2013-09-30 04:42:00,58.0,34.0,-100.00,West,265,6.0,11.0,40,0.00,,,0.00,0.000000,,2013-09-30 08:42:00,
2013-09-30 04:52:00,58.0,34.0,-100.00,West,265,6.0,11.0,40,0.00,,,0.00,0.000000,,2013-09-30 08:52:00,
2013-09-30 05:02:00,58.0,34.0,-100.00,West,265,6.0,11.0,40,0.00,,,0.00,0.000000,,2013-09-30 09:02:00,
2013-09-30 05:11:00,58.0,34.0,-100.00,West,265,6.0,11.0,40,0.00,,,0.00,0.000000,,2013-09-30 09:11:00,
2013-09-30 05:13:00,57.0,35.0,-100.00,WSW,257,8.0,14.0,43,0.00,,,0.00,0.000000,,2013-09-30 09:13:00,
2013-09-30 05:42:00,57.0,35.0,-100.00,WSW,257,8.0,14.0,43,0.00,,,0.00,0.000000,,2013-09-30 09:42:00,
2013-09-30 05:54:00,57.0,35.0,-100.00,WSW,257,8.0,14.0,43,0.00,,,0.00,0.000000,,2013-09-30 09:54:00,
2013-09-30 06:03:00,57.0,35.0,-100.00,WSW,257,8.0,14.0,43,0.00,,,0.00,0.000000,,2013-09-30 10:03:00,
2013-09-30 06:43:00,56.0,35.0,-100.00,WSW,249,7.0,14.0,45,0.00,,,0.00,0.000000,,2013-09-30 10:43:00,
2013-09-30 06:53:00,56.0,35.0,-100.00,WSW,249,7.0,14.0,45,0.00,,,0.00,0.000000,,2013-09-30 10:53:00,
2013-09-30 07:03:00,56.0,35.0,-100.00,WSW,249,7.0,14.0,45,0.00,,,0.00,0.000000,,2013-09-30 11:03:00,
2013-09-30 07:12:00,56.0,35.0,-100.00,WSW,249,7.0,14.0,45,0.00,,,0.00,0.000000,,2013-09-30 11:12:00,
2013-09-30 07:43:00,56.0,34.0,-100.00,WNW,297,6.0,11.0,44,0.00,,,0.00,0.000000,,2013-09-30 11:43:00,
2013-09-30 07:52:00,56.0,34.0,-100.00,WNW,297,6.0,11.0,44,0.00,,,0.00,0.000000,,2013-09-30 11:52:00,
2013-09-30 08:02:00,56.0,34.0,-100.00,WNW,297,6.0,11.0,44,0.00,,,0.00,0.000000,,2013-09-30 12:02:00,
2013-09-30 08:12:00,56.0,34.0,-100.00,WNW,297,6.0,11.0,44,0.00,,,0.00,0.000000,,2013-09-30 12:12:00,
2013-09-30 08:42:00,57.0,32.0,-100.00,NW,305,6.0,12.0,39,0.00,,,0.00,0.000000,,2013-09-30 12:42:00,
2013-09-30 08:52:00,57.0,32.0,-100.00,NW,305,6.0,12.0,39,0.00,,,0.00,0.000000,,2013-09-30 12:52:00,
2013-09-30 09:01:00,57.0,32.0,-100.00,NW,305,6.0,12.0,39,0.00,,,0.00,0.000000,,2013-09-30 13:01:00,
2013-09-30 09:11:00,57.0,32.0,-100.00,NW,305,6.0,12.0,39,0.00,,,0.00,0.000000,,2013-09-30 13:11:00,
2013-09-30 09:42:00,58.0,33.0,-100.00,West,261,4.0,11.0,38,0.00,,,0.00,4.000000,,2013-09-30 13:42:00,
2013-09-30 09:52:00,58.0,33.0,-100.00,West,261,4.0,11.0,38,0.00,,,0.00,4.000000,,2013-09-30 13:52:00,
2013-09-30 10:02:00,58.0,33.0,-100.00,West,261,4.0,11.0,38,0.00,,,0.00,4.000000,,2013-09-30 14:02:00,
2013-09-30 10:11:00,58.0,33.0,-100.00,West,261,4.0,11.0,38,0.00,,,0.00,4.000000,,2013-09-30 14:11:00,
2013-09-30 11:11:00,63.0,33.0,-100.00,WSW,241,6.0,14.0,32,0.00,,,0.00,81.000000,,2013-09-30 15:11:00,
2013-09-30 11:13:00,66.0,33.0,-100.00,SW,214,7.0,16.0,29,0.00,,,-99.99,289.000000,,2013-09-30 15:13:00,
2013-09-30 11:54:00,66.0,33.0,-100.00,SW,214,7.0,16.0,29,0.00,,,-99.99,289.000000,,2013-09-30 15:54:00,
2013-09-30 12:04:00,66.0,33.0,-100.00,SW,214,7.0,16.0,29,0.00,,,-99.99,289.000000,,2013-09-30 16:04:00,
2013-09-30 12:13:00,70.0,34.0,-100.00,West,267,9.0,23.0,26,0.00,,,0.00,480.000000,,2013-09-30 16:13:00,
2013-09-30 12:44:00,70.0,34.0,-100.00,West,267,9.0,23.0,26,0.00,,,0.00,480.000000,,2013-09-30 16:44:00,
2013-09-30 12:53:00,70.0,34.0,-100.00,West,267,9.0,23.0,26,0.00,,,0.00,480.000000,,2013-09-30 16:53:00,
2013-09-30 13:03:00,70.0,34.0,-100.00,West,267,9.0,23.0,26,0.00,,,0.00,480.000000,,2013-09-30 17:03:00,
2013-09-30 13:43:00,74.0,30.0,-100.00,SW,217,12.0,23.0,20,0.00,,,0.00,661.000000,,2013-09-30 17:43:00,
2013-09-30 13:53:00,74.0,30.0,-100.00,SW,217,12.0,23.0,20,0.00,,,0.00,661.000000,,2013-09-30 17:53:00,
2013-09-30 14:02:00,74.0,30.0,-100.00,SW,217,12.0,23.0,20,0.00,,,0.00,661.000000,,2013-09-30 18:02:00,
2013-09-30 14:12:00,74.0,30.0,-100.00,SW,217,12.0,23.0,20,0.00,,,0.00,661.000000,,2013-09-30 18:12:00,
2013-09-30 14:42:00,76.0,31.0,-100.00,WSW,237,14.0,30.0,19,0.00,,,0.00,791.000000,,2013-09-30 18:42:00,
2013-09-30 14:53:00,76.0,31.0,-100.00,WSW,237,14.0,30.0,19,0.00,,,0.00,791.000000,,2013-09-30 18:53:00,
2013-09-30 15:02:00,76.0,31.0,-100.00,WSW,237,14.0,30.0,19,0.00,,,0.00,791.000000,,2013-09-30 19:02:00,
2013-09-30 15:12:00,76.0,31.0,-100.00,WSW,237,14.0,30.0,19,0.00,,,0.00,791.000000,,2013-09-30 19:12:00,
2013-09-30 15:13:00,80.0,28.0,-100.00,SW,221,16.0,34.0,15,0.00,,,0.00,845.000000,,2013-09-30 19:13:00,
2013-09-30 15:42:00,80.0,28.0,-100.00,SW,221,16.0,34.0,15,0.00,,,0.00,845.000000,,2013-09-30 19:42:00,
2013-09-30 15:53:00,80.0,28.0,-100.00,SW,221,16.0,34.0,15,0.00,,,0.00,845.000000,,2013-09-30 19:53:00,
2013-09-30 16:02:00,80.0,28.0,-100.00,SW,221,16.0,34.0,15,0.00,,,0.00,845.000000,,2013-09-30 20:02:00,
2013-09-30 16:43:00,81.0,31.0,-100.00,SW,229,16.0,37.0,16,0.00,,,0.00,843.000000,,2013-09-30 20:43:00,
2013-09-30 16:53:00,81.0,31.0,-100.00,SW,229,16.0,37.0,16,0.00,,,0.00,843.000000,,2013-09-30 20:53:00,
2013-09-30 17:02:00,81.0,31.0,-100.00,SW,229,16.0,37.0,16,0.00,,,0.00,843.000000,,2013-09-30 21:02:00,
2013-09-30 17:11:00,81.0,31.0,-100.00,SW,229,16.0,37.0,16,0.00,,,0.00,843.000000,,2013-09-30 21:11:00,
2013-09-30 17:13:00,78.0,32.0,-100.00,WSW,241,11.0,35.0,19,0.00,,,0.00,603.000000,,2013-09-30 21:13:00,
2013-09-30 17:44:00,78.0,32.0,-100.00,WSW,241,11.0,35.0,19,0.00,,,0.00,603.000000,,2013-09-30 21:44:00,
2013-09-30 17:54:00,78.0,32.0,-100.00,WSW,241,11.0,35.0,19,0.00,,,0.00,603.000000,,2013-09-30 21:54:00,
2013-09-30 18:03:00,78.0,32.0,-100.00,WSW,241,11.0,35.0,19,0.00,,,0.00,603.000000,,2013-09-30 22:03:00,
2013-09-30 18:44:00,82.0,31.0,-100.00,SW,232,11.0,30.0,16,0.00,,,0.00,433.000000,,2013-09-30 22:44:00,
2013-09-30 18:54:00,82.0,31.0,-100.00,SW,232,11.0,30.0,16,0.00,,,0.00,433.000000,,2013-09-30 22:54:00,
2013-09-30 19:03:00,82.0,31.0,-100.00,SW,232,11.0,30.0,16,0.00,,,0.00,433.000000,,2013-09-30 23:03:00,
2013-09-30 19:12:00,82.0,31.0,-100.00,SW,232,11.0,30.0,16,0.00,,,0.00,433.000000,,2013-09-30 23:12:00,
2013-09-30 19:43:00,79.0,30.0,-100.00,WSW,256,14.0,33.0,17,0.00,,,0.00,370.000000,,2013-09-30 23:43:00,
2013-09-30 19:54:00,79.0,30.0,-100.00,WSW,256,14.0,33.0,17,0.00,,,0.00,370.000000,,2013-09-30 23:54:00,
2013-09-30 20:03:00,79.0,30.0,-100.00,WSW,256,14.0,33.0,17,0.00,,,0.00,370.000000,,2013-10-01 00:03:00,
2013-09-30 20:12:00,79.0,30.0,-100.00,WSW,256,14.0,33.0,17,0.00,,,0.00,370.000000,,2013-10-01 00:12:00,
2013-09-30 20:43:00,76.0,29.0,-100.00,WSW,240,11.0,32.0,18,0.00,,,0.00,113.000000,,2013-10-01 00:43:00,
2013-09-30 20:52:00,76.0,29.0,-100.00,WSW,240,11.0,32.0,18,0.00,,,0.00,113.000000,,2013-10-01 00:52:00,
2013-09-30 21:03:00,76.0,29.0,-100.00,WSW,240,11.0,32.0,18,0.00,,,0.00,113.000000,,2013-10-01 01:03:00,
2013-09-30 21:12:00,76.0,29.0,-100.00,WSW,240,11.0,32.0,18,0.00,,,0.00,113.000000,,2013-10-01 01:12:00,
2013-09-30 21:42:00,73.0,31.0,-100.00,West,264,8.0,22.0,21,0.00,,,0.00,6.000000,,2013-10-01 01:42:00,
2013-09-30 21:52:00,73.0,31.0,-100.00,West,264,8.0,22.0,21,0.00,,,0.00,6.000000,,2013-10-01 01:52:00,
2013-09-30 22:02:00,73.0,31.0,-100.00,West,264,8.0,22.0,21,0.00,,,0.00,6.000000,,2013-10-01 02:02:00,
2013-09-30 22:12:00,73.0,31.0,-100.00,West,264,8.0,22.0,21,0.00,,,0.00,6.000000,,2013-10-01 02:12:00,
2013-09-30 22:43:00,68.0,35.0,-100.00,WNW,299,4.0,15.0,29,0.00,,,0.00,0.000000,,2013-10-01 02:43:00,
2013-09-30 22:52:00,68.0,35.0,-100.00,WNW,299,4.0,15.0,29,0.00,,,0.00,0.000000,,2013-10-01 02:52:00,
2013-09-30 23:03:00,68.0,35.0,-100.00,WNW,299,4.0,15.0,29,0.00,,,0.00,0.000000,,2013-10-01 03:03:00,
2013-09-30 23:12:00,68.0,35.0,-100.00,WNW,299,4.0,15.0,29,0.00,,,0.00,0.000000,,2013-10-01 03:12:00,
2013-09-30 23:44:00,66.0,36.0,-100.00,West,261,3.0,10.0,33,0.00,,,0.00,0.000000,,2013-10-01 03:44:00,
2013-09-30 23:55:00,66.0,36.0,-100.00,West,261,3.0,10.0,33,0.00,,,0.00,0.000000,,2013-10-01 03:55:00,